createdAt,value
2023-05-14T00:00:28.986Z,9.50
2023-05-14T00:02:55.527Z,9.77
2023-05-14T00:05:22.912Z,9.00
2023-05-14T00:07:49.190Z,10.07
2023-05-14T00:10:15.585Z,9.37
2023-05-14T00:12:41.908Z,9.30
2023-05-14T00:15:08.548Z,9.50
2023-05-14T00:17:34.816Z,9.60
2023-05-14T00:20:01.274Z,9.20
2023-05-14T00:22:27.863Z,8.97
2023-05-14T00:24:54.247Z,9.27
2023-05-14T00:27:20.508Z,9.03
2023-05-14T00:29:46.780Z,8.70
2023-05-14T00:32:13.082Z,9.63
2023-05-14T00:34:39.331Z,8.93
2023-05-14T00:37:05.619Z,9.30
2023-05-14T00:39:31.917Z,9.00
2023-05-14T00:41:58.792Z,8.73
2023-05-14T00:44:25.083Z,9.50
2023-05-14T00:46:52.350Z,9.70
2023-05-14T00:49:18.762Z,8.97
2023-05-14T00:51:48.055Z,9.10
2023-05-14T00:54:15.992Z,9.40
2023-05-14T00:56:44.943Z,9.30
2023-05-14T00:59:11.193Z,9.23
2023-05-14T01:01:37.701Z,9.23
2023-05-14T01:04:04.267Z,9.10
2023-05-14T01:06:43.730Z,9.60
2023-05-14T01:09:15.757Z,10.30
2023-05-14T01:11:52.557Z,9.00
2023-05-14T01:14:31.363Z,9.30
2023-05-14T01:16:58.761Z,9.53
2023-05-14T01:19:39.593Z,9.93
2023-05-14T01:22:06.231Z,9.57
2023-05-14T01:24:33.107Z,9.53
2023-05-14T01:27:05.916Z,9.57
2023-05-14T01:29:33.684Z,9.13
2023-05-14T01:32:00.601Z,8.77
2023-05-14T01:34:28.338Z,8.67
2023-05-14T01:36:55.732Z,8.60
2023-05-14T01:39:23.016Z,9.27
2023-05-14T01:41:49.740Z,8.40
2023-05-14T01:44:16.249Z,9.20
2023-05-14T01:46:42.531Z,8.50
2023-05-14T01:49:08.876Z,8.50
2023-05-14T01:51:35.277Z,8.20
2023-05-14T01:54:01.587Z,8.47
2023-05-14T01:56:27.842Z,8.90
2023-05-14T01:58:55.798Z,8.43
2023-05-14T02:01:22.267Z,7.83
2023-05-14T02:03:48.662Z,6.80
2023-05-14T02:06:14.938Z,7.40
2023-05-14T02:08:41.198Z,6.83
2023-05-14T02:11:07.548Z,7.30
2023-05-14T02:13:33.841Z,6.97
2023-05-14T02:16:00.135Z,6.90
2023-05-14T02:18:26.533Z,7.17
2023-05-14T02:20:52.843Z,6.83
2023-05-14T02:23:20.624Z,6.50
2023-05-14T02:25:52.043Z,6.80
2023-05-14T02:28:18.288Z,6.63
2023-05-14T02:30:44.538Z,6.87
2023-05-14T02:33:10.878Z,6.37
2023-05-14T02:35:37.374Z,6.30
2023-05-14T02:38:03.800Z,5.73
2023-05-14T02:40:30.116Z,6.23
2023-05-14T02:42:56.364Z,6.03
2023-05-14T02:45:22.688Z,5.63
2023-05-14T02:47:48.995Z,6.07
2023-05-14T02:50:15.298Z,6.07
2023-05-14T02:52:41.577Z,5.97
2023-05-14T02:55:08.176Z,6.50
2023-05-14T02:57:34.468Z,5.60
2023-05-14T03:00:00.712Z,6.00
2023-05-14T03:02:27.644Z,5.50
2023-05-14T03:04:54.280Z,5.90
2023-05-14T03:07:20.561Z,6.10
2023-05-14T03:09:46.834Z,6.20
2023-05-14T03:12:14.309Z,6.03
2023-05-14T03:14:40.624Z,5.70
2023-05-14T03:17:06.954Z,5.87
2023-05-14T03:19:33.215Z,6.10
2023-05-14T03:21:59.541Z,5.87
2023-05-14T03:24:25.853Z,6.37
2023-05-14T03:26:52.149Z,6.30
2023-05-14T03:29:18.551Z,6.30
2023-05-14T03:31:44.948Z,6.67
2023-05-14T03:34:11.232Z,6.30
2023-05-14T03:36:38.972Z,6.27
2023-05-14T03:39:06.889Z,6.27
2023-05-14T03:41:33.289Z,6.10
2023-05-14T03:43:59.508Z,6.60
2023-05-14T03:46:25.792Z,6.23
2023-05-14T03:48:52.042Z,6.47
2023-05-14T03:51:18.408Z,6.80
2023-05-14T03:53:44.961Z,6.93
2023-05-14T03:56:11.222Z,6.60
2023-05-14T03:58:37.525Z,7.67
2023-05-14T04:01:03.823Z,6.93
2023-05-14T04:03:30.192Z,7.17
2023-05-14T04:05:57.201Z,7.47
2023-05-14T04:08:23.881Z,6.80
2023-05-14T04:10:50.373Z,7.17
2023-05-14T04:13:16.683Z,6.83
2023-05-14T04:15:42.979Z,6.40
2023-05-14T04:18:09.379Z,6.63
2023-05-14T04:20:35.750Z,7.07
2023-05-14T04:23:02.007Z,6.83
2023-05-14T04:25:28.455Z,6.90
2023-05-14T04:27:54.677Z,7.30
2023-05-14T04:30:21.050Z,7.20
2023-05-14T04:32:47.513Z,7.63
2023-05-14T04:35:13.915Z,7.03
2023-05-14T04:37:40.485Z,6.63
2023-05-14T04:40:08.619Z,7.03
2023-05-14T04:42:34.892Z,7.20
2023-05-14T04:45:01.209Z,7.13
2023-05-14T04:47:27.611Z,6.17
2023-05-14T04:49:53.870Z,7.27
2023-05-14T04:52:20.155Z,7.33
2023-05-14T04:54:46.474Z,7.10
2023-05-14T04:57:12.811Z,7.30
2023-05-14T04:59:39.105Z,6.93
2023-05-14T05:02:05.345Z,6.83
2023-05-14T05:04:31.647Z,6.93
2023-05-14T05:06:57.912Z,7.03
2023-05-14T05:09:24.342Z,7.20
2023-05-14T05:11:50.655Z,7.33
2023-05-14T05:14:17.221Z,6.80
2023-05-14T05:16:43.539Z,6.80
2023-05-14T05:19:09.844Z,7.03
2023-05-14T05:21:36.405Z,7.03
2023-05-14T05:24:02.676Z,7.03
2023-05-14T05:26:28.924Z,6.73
2023-05-14T05:28:55.179Z,6.73
2023-05-14T05:31:21.521Z,7.13
2023-05-14T05:33:48.105Z,6.47
2023-05-14T05:36:14.381Z,6.23
2023-05-14T05:38:40.631Z,6.70
2023-05-14T05:41:07.536Z,6.73
2023-05-14T05:43:34.150Z,6.83
2023-05-14T05:46:00.938Z,6.70
2023-05-14T05:48:27.178Z,6.87
2023-05-14T05:50:53.908Z,6.17
2023-05-14T05:53:20.283Z,6.20
2023-05-14T05:55:46.550Z,6.67
2023-05-14T05:58:15.686Z,6.40
2023-05-14T06:00:41.916Z,6.50
2023-05-14T06:03:08.184Z,6.20
2023-05-14T06:05:34.505Z,6.50
2023-05-14T06:08:00.808Z,6.00
2023-05-14T06:10:27.079Z,6.87
2023-05-14T06:12:53.721Z,6.17
2023-05-14T06:15:20.074Z,6.50
2023-05-14T06:17:46.523Z,6.07
2023-05-14T06:20:12.911Z,5.63
2023-05-14T06:22:39.249Z,6.47
2023-05-14T06:25:05.691Z,5.70
2023-05-14T06:27:31.958Z,6.10
2023-05-14T06:29:58.182Z,5.93
2023-05-14T06:32:24.590Z,5.97
2023-05-14T06:34:51.032Z,6.23
2023-05-14T06:37:17.299Z,5.33
2023-05-14T06:39:49.796Z,6.00
2023-05-14T06:42:16.505Z,6.13
2023-05-14T06:44:43.063Z,6.17
2023-05-14T06:47:09.310Z,5.37
2023-05-14T06:49:36.042Z,6.40
2023-05-14T06:52:02.431Z,5.80
2023-05-14T06:54:28.703Z,5.73
2023-05-14T06:56:55.004Z,5.43
2023-05-14T06:59:21.283Z,5.83
2023-05-14T07:01:47.593Z,5.60
2023-05-14T07:04:13.883Z,5.57
2023-05-14T07:06:40.494Z,5.87
2023-05-14T07:09:10.625Z,5.50
2023-05-14T07:11:36.857Z,5.20
2023-05-14T07:14:03.097Z,5.77
2023-05-14T07:16:29.410Z,5.73
2023-05-14T07:18:55.736Z,5.40
2023-05-14T07:21:22.055Z,5.53
2023-05-14T07:23:48.316Z,5.80
2023-05-14T07:26:14.575Z,5.53
2023-05-14T07:28:40.979Z,5.13
2023-05-14T07:31:09.081Z,5.00
2023-05-14T07:33:36.329Z,5.57
2023-05-14T07:36:02.628Z,4.93
2023-05-14T07:38:29.103Z,4.60
2023-05-14T07:40:56.166Z,4.87
2023-05-14T07:43:22.462Z,4.47
2023-05-14T07:45:48.737Z,4.70
2023-05-14T07:48:15.205Z,4.13
2023-05-14T07:50:41.558Z,4.33
2023-05-14T07:53:08.018Z,4.60
2023-05-14T07:55:34.330Z,4.10
2023-05-14T07:58:00.871Z,4.00
2023-05-14T08:00:27.272Z,4.57
2023-05-14T08:02:54.842Z,4.47
2023-05-14T08:05:21.588Z,3.80
2023-05-14T08:07:48.021Z,4.30
2023-05-14T08:10:14.321Z,3.80
2023-05-14T08:12:40.754Z,3.57
2023-05-14T08:15:07.758Z,3.50
2023-05-14T08:17:34.096Z,3.70
2023-05-14T08:20:00.446Z,3.70
2023-05-14T08:22:26.690Z,4.10
2023-05-14T08:24:54.014Z,3.60
2023-05-14T08:27:21.538Z,3.90
2023-05-14T08:29:47.784Z,3.73
2023-05-14T08:32:22.933Z,3.57
2023-05-14T08:34:50.712Z,3.07
2023-05-14T08:37:17.032Z,3.63
2023-05-14T08:39:43.500Z,3.50
2023-05-14T08:42:12.071Z,2.90
2023-05-14T08:44:39.555Z,3.43
2023-05-14T08:47:05.996Z,3.77
2023-05-14T08:49:46.708Z,3.23
2023-05-14T08:52:13.167Z,3.33
2023-05-14T08:54:42.350Z,3.43
2023-05-14T08:57:09.976Z,3.17
2023-05-14T08:59:36.332Z,3.40
2023-05-14T09:02:03.167Z,3.63
2023-05-14T09:04:30.012Z,3.43
2023-05-14T09:06:56.468Z,3.10
2023-05-14T09:09:23.165Z,3.47
2023-05-14T09:11:50.185Z,3.03
2023-05-14T09:14:16.502Z,3.37
2023-05-14T09:16:45.099Z,3.90
2023-05-14T09:19:12.431Z,3.23
2023-05-14T09:21:38.818Z,2.83
2023-05-14T09:24:05.249Z,3.37
2023-05-14T09:26:32.021Z,3.33
2023-05-14T09:29:04.945Z,3.30
2023-05-14T09:31:33.059Z,3.17
2023-05-14T09:33:59.607Z,3.23
2023-05-14T09:36:29.569Z,2.90
2023-05-14T09:39:00.583Z,2.87
2023-05-14T09:41:26.829Z,2.90
2023-05-14T09:43:53.260Z,3.20
2023-05-14T09:46:19.504Z,3.20
2023-05-14T09:48:46.064Z,2.73
2023-05-14T09:51:13.646Z,3.03
2023-05-14T09:53:41.266Z,2.90
2023-05-14T09:56:07.605Z,3.20
2023-05-14T09:58:33.884Z,3.10
2023-05-14T10:01:01.728Z,3.17
2023-05-14T10:03:29.807Z,3.20
2023-05-14T10:06:01.177Z,3.40
2023-05-14T10:08:34.321Z,3.17
2023-05-14T10:11:01.792Z,3.60
2023-05-14T10:13:31.095Z,3.17
2023-05-14T10:16:06.328Z,3.00
2023-05-14T10:18:36.051Z,3.50
2023-05-14T10:21:04.754Z,3.30
2023-05-14T10:23:31.238Z,3.43
2023-05-14T10:25:58.450Z,3.83
2023-05-14T10:28:24.779Z,3.57
2023-05-14T10:30:51.452Z,3.30
2023-05-14T10:33:18.689Z,3.53
2023-05-14T10:35:51.281Z,3.00
2023-05-14T10:38:17.577Z,3.17
2023-05-14T10:40:43.873Z,3.67
2023-05-14T10:43:11.322Z,3.60
2023-05-14T10:45:37.695Z,3.30
2023-05-14T10:48:04.172Z,3.37
2023-05-14T10:50:30.524Z,3.30
2023-05-14T10:52:57.491Z,3.60
2023-05-14T10:55:24.914Z,3.33
2023-05-14T10:57:52.236Z,3.30
2023-05-14T11:00:18.568Z,3.27
2023-05-14T11:02:45.122Z,3.53
2023-05-14T11:05:15.337Z,3.53
2023-05-14T11:07:42.228Z,3.40
2023-05-14T11:10:09.432Z,3.03
2023-05-14T11:12:36.712Z,3.73
2023-05-14T11:15:04.256Z,3.50
2023-05-14T11:17:31.749Z,3.50
2023-05-14T11:19:58.845Z,3.03
2023-05-14T11:22:25.347Z,3.60
2023-05-14T11:24:51.631Z,4.00
2023-05-14T11:27:18.503Z,3.40
2023-05-14T11:29:46.099Z,4.00
2023-05-14T11:32:13.078Z,3.10
2023-05-14T11:34:39.472Z,3.43
2023-05-14T11:37:06.697Z,3.60
2023-05-14T11:39:33.391Z,3.60
2023-05-14T11:42:02.145Z,3.53
2023-05-14T11:44:28.462Z,3.87
2023-05-14T11:46:55.715Z,3.70
2023-05-14T11:49:23.737Z,3.30
2023-05-14T11:51:50.545Z,3.80
2023-05-14T11:54:16.897Z,3.50
2023-05-14T11:56:43.143Z,3.30
2023-05-14T11:59:10.761Z,3.83
2023-05-14T12:01:37.447Z,4.17
2023-05-14T12:04:04.687Z,3.73
2023-05-14T12:06:32.194Z,3.77
2023-05-14T12:08:58.506Z,4.00
2023-05-14T12:11:24.748Z,3.87
2023-05-14T12:13:52.683Z,3.90
2023-05-14T12:16:20.695Z,3.70
2023-05-14T12:18:46.973Z,3.67
2023-05-14T12:21:13.309Z,3.90
2023-05-14T12:23:39.715Z,3.67
2023-05-14T12:26:07.066Z,3.60
2023-05-14T12:28:35.346Z,3.83
2023-05-14T12:31:03.633Z,3.70
2023-05-14T12:33:29.928Z,3.90
2023-05-14T12:36:09.934Z,4.10
2023-05-14T12:38:41.274Z,3.73
2023-05-14T12:41:07.587Z,3.90
2023-05-14T12:43:33.824Z,3.67
2023-05-14T12:46:00.145Z,4.00
2023-05-14T12:48:26.574Z,4.00
2023-05-14T12:50:52.841Z,3.77
2023-05-14T12:53:19.135Z,3.67
2023-05-14T12:55:45.461Z,3.40
2023-05-14T12:58:11.710Z,4.17
2023-05-14T13:00:38.094Z,3.63
2023-05-14T13:03:04.423Z,3.40
2023-05-14T13:05:30.824Z,4.27
2023-05-14T13:07:58.730Z,3.60
2023-05-14T13:10:24.982Z,4.10
2023-05-14T13:12:52.642Z,3.80
2023-05-14T13:15:18.917Z,4.13
2023-05-14T13:17:45.210Z,3.60
2023-05-14T13:20:11.594Z,3.37
2023-05-14T13:22:37.929Z,3.97
2023-05-14T13:25:04.899Z,3.30
2023-05-14T13:30:23.089Z,3.63
2023-05-14T13:32:49.425Z,3.47
2023-05-14T13:35:15.712Z,3.20
2023-05-14T13:37:45.103Z,3.53
2023-05-14T13:40:11.683Z,3.80
2023-05-14T13:42:39.780Z,3.73
2023-05-14T13:45:06.427Z,3.90
2023-05-14T13:47:33.555Z,3.70
2023-05-14T13:49:59.856Z,3.67
2023-05-14T13:52:26.564Z,3.40
2023-05-14T13:54:53.174Z,4.40
2023-05-14T13:57:19.655Z,3.90
2023-05-14T13:59:46.228Z,3.67
2023-05-14T14:02:12.518Z,3.37
2023-05-14T14:04:38.822Z,3.43
2023-05-14T14:07:05.071Z,3.57
2023-05-14T14:09:35.096Z,3.63
2023-05-14T14:12:03.491Z,3.63
2023-05-14T14:14:29.825Z,3.40
2023-05-14T14:16:56.090Z,3.40
2023-05-14T14:19:22.876Z,3.67
2023-05-14T14:24:20.479Z,2.90
2023-05-14T14:26:46.780Z,3.10
2023-05-14T14:29:13.096Z,3.47
2023-05-14T14:31:39.434Z,3.20
2023-05-14T14:34:06.095Z,3.80
2023-05-14T14:36:32.345Z,3.93
2023-05-14T14:38:58.638Z,3.80
2023-05-14T14:41:24.892Z,3.40
2023-05-14T14:43:51.172Z,3.60
2023-05-14T14:46:17.445Z,3.20
2023-05-14T14:48:44.009Z,3.30
2023-05-14T14:51:10.324Z,3.50
2023-05-14T14:53:37.164Z,3.53
2023-05-14T14:56:03.975Z,3.33
2023-05-14T14:58:31.036Z,3.40
2023-05-14T15:00:58.021Z,3.40
2023-05-14T15:03:24.823Z,3.50
2023-05-14T15:05:53.242Z,3.20
2023-05-14T15:08:20.819Z,3.10
2023-05-14T15:10:47.113Z,3.50
2023-05-14T15:13:13.374Z,3.77
2023-05-14T15:15:39.636Z,3.63
2023-05-14T15:18:06.023Z,2.80
2023-05-14T15:20:32.339Z,3.13
2023-05-14T15:22:58.654Z,3.30
2023-05-14T15:25:25.372Z,3.20
2023-05-14T15:27:51.784Z,2.83
2023-05-14T15:30:18.917Z,2.90
2023-05-14T15:32:45.996Z,3.07
2023-05-14T15:35:12.557Z,3.30
2023-05-14T15:37:39.958Z,3.07
2023-05-14T15:40:10.346Z,3.47
2023-05-14T15:42:37.361Z,3.00
2023-05-14T15:45:03.994Z,3.07
2023-05-14T15:47:30.383Z,3.13
2023-05-14T15:49:56.725Z,2.77
2023-05-14T15:52:23.016Z,3.10
2023-05-14T15:54:49.548Z,2.90
2023-05-14T15:57:17.823Z,3.17
2023-05-14T15:59:46.245Z,3.50
2023-05-14T16:02:12.653Z,2.93
2023-05-14T16:04:38.903Z,2.60
2023-05-14T16:07:08.093Z,2.83
2023-05-14T16:09:35.734Z,3.03
2023-05-14T16:12:02.035Z,3.27
2023-05-14T16:14:28.282Z,3.10
2023-05-14T16:16:54.759Z,3.33
2023-05-14T16:19:21.096Z,3.23
2023-05-14T16:21:47.483Z,3.50
2023-05-14T16:24:13.729Z,3.67
2023-05-14T16:26:40.070Z,3.97
2023-05-14T16:29:06.508Z,3.23
2023-05-14T16:31:32.767Z,3.50
2023-05-14T16:33:59.233Z,3.73
2023-05-14T16:36:26.515Z,3.37
2023-05-14T16:39:06.914Z,3.17
2023-05-14T16:41:34.762Z,3.17
2023-05-14T16:44:01.119Z,3.27
2023-05-14T16:46:29.273Z,3.07
2023-05-14T16:48:55.816Z,3.60
2023-05-14T16:51:22.316Z,3.73
2023-05-14T16:53:48.575Z,3.33
2023-05-14T16:56:14.805Z,3.10
2023-05-14T16:58:41.032Z,3.20
2023-05-14T17:01:09.647Z,3.40
2023-05-14T17:03:36.775Z,3.07
2023-05-14T17:06:03.176Z,3.43
2023-05-14T17:08:33.375Z,3.33
2023-05-14T17:10:59.648Z,3.23
2023-05-14T17:13:25.963Z,3.40
2023-05-14T17:15:52.231Z,3.00
2023-05-14T17:18:18.518Z,3.30
2023-05-14T17:20:44.790Z,3.10
2023-05-14T17:23:11.034Z,3.73
2023-05-14T17:25:37.343Z,3.43
2023-05-14T17:28:03.688Z,3.60
2023-05-14T17:30:29.956Z,3.63
2023-05-14T17:32:56.320Z,3.83
2023-05-14T17:35:22.905Z,3.63
2023-05-14T17:37:49.422Z,3.93
2023-05-14T17:40:15.911Z,3.47
2023-05-14T17:42:42.252Z,3.50
2023-05-14T17:45:08.710Z,3.90
2023-05-14T17:47:34.991Z,4.27
2023-05-14T17:50:01.332Z,3.63
2023-05-14T17:52:27.595Z,3.60
2023-05-14T17:54:53.834Z,3.50
2023-05-14T17:57:20.147Z,3.50
2023-05-14T17:59:46.396Z,3.67
2023-05-14T18:02:12.613Z,3.50
2023-05-14T18:04:38.950Z,3.70
2023-05-14T18:07:05.302Z,3.90
2023-05-14T18:09:31.741Z,3.83
2023-05-14T18:11:57.974Z,3.40
2023-05-14T18:14:24.275Z,3.80
2023-05-14T18:16:51.211Z,3.97
2023-05-14T18:19:17.551Z,4.23
2023-05-14T18:21:46.579Z,3.63
2023-05-14T18:24:13.529Z,3.97
2023-05-14T18:26:39.869Z,4.00
2023-05-14T18:29:06.101Z,4.10
2023-05-14T18:31:32.515Z,3.97
2023-05-14T18:33:58.915Z,3.80
2023-05-14T18:36:25.284Z,3.60
2023-05-14T18:38:51.556Z,3.30
2023-05-14T18:41:17.787Z,3.47
2023-05-14T18:43:44.107Z,3.77
2023-05-14T18:46:12.177Z,4.00
2023-05-14T18:48:38.545Z,3.70
2023-05-14T18:51:05.568Z,4.10
2023-05-14T18:53:37.038Z,3.60
2023-05-14T18:56:03.446Z,3.77
2023-05-14T18:58:29.698Z,4.07
2023-05-14T19:00:58.428Z,4.00
2023-05-14T19:03:25.036Z,3.93
2023-05-14T19:05:53.076Z,3.90
2023-05-14T19:08:19.386Z,4.00
2023-05-14T19:10:45.712Z,4.03
2023-05-14T19:13:12.066Z,4.13
2023-05-14T19:15:38.345Z,3.60
2023-05-14T19:18:04.827Z,4.50
2023-05-14T19:20:31.186Z,4.20
2023-05-14T19:22:57.458Z,4.43
2023-05-14T19:25:23.835Z,4.43
2023-05-14T19:27:51.106Z,4.70
2023-05-14T19:30:17.836Z,4.50
2023-05-14T19:32:44.262Z,5.07
2023-05-14T19:35:11.452Z,5.00
2023-05-14T19:37:37.778Z,5.50
2023-05-14T19:40:04.228Z,5.20
2023-05-14T19:42:31.681Z,5.50
2023-05-14T19:44:58.026Z,5.50
2023-05-14T19:47:24.337Z,5.37
2023-05-14T19:49:50.580Z,5.50
2023-05-14T19:52:16.818Z,5.60
2023-05-14T19:54:43.086Z,5.40
2023-05-14T19:57:09.406Z,5.87
2023-05-14T19:59:35.739Z,5.73
2023-05-14T20:02:02.189Z,5.53
2023-05-14T20:04:28.587Z,6.23
2023-05-14T20:06:54.883Z,6.03
2023-05-14T20:09:21.198Z,6.67
2023-05-14T20:11:47.433Z,6.60
2023-05-14T20:14:14.150Z,5.80
2023-05-14T20:16:41.626Z,6.30
2023-05-14T20:19:08.012Z,6.40
2023-05-14T20:21:34.321Z,6.20
2023-05-14T20:24:00.609Z,6.23
2023-05-14T20:26:26.948Z,5.83
2023-05-14T20:28:53.792Z,7.10
2023-05-14T20:31:21.373Z,7.00
2023-05-14T20:33:47.733Z,6.53
2023-05-14T20:36:14.215Z,6.40
2023-05-14T20:38:40.768Z,6.67
2023-05-14T20:41:07.831Z,6.73
2023-05-14T20:43:34.078Z,6.73
2023-05-14T20:46:00.774Z,7.33
2023-05-14T20:48:27.142Z,7.23
2023-05-14T20:50:53.424Z,7.67
2023-05-14T20:53:19.722Z,7.20
2023-05-14T20:55:45.969Z,7.30
2023-05-14T20:58:12.200Z,7.37
2023-05-14T21:00:39.224Z,7.47
2023-05-14T21:03:05.613Z,7.57
2023-05-14T21:05:32.277Z,7.00
2023-05-14T21:07:58.557Z,7.97
2023-05-14T21:10:25.595Z,7.30
2023-05-14T21:12:52.377Z,7.97
2023-05-14T21:15:18.638Z,7.80
2023-05-14T21:17:44.983Z,7.73
2023-05-14T21:20:13.338Z,7.70
2023-05-14T21:22:39.559Z,7.47
2023-05-14T21:25:05.915Z,7.83
2023-05-14T21:27:32.156Z,8.17
2023-05-14T21:29:58.421Z,7.03
2023-05-14T21:32:24.737Z,7.93
2023-05-14T21:34:51.026Z,8.17
2023-05-14T21:37:17.921Z,7.47
2023-05-14T21:39:44.258Z,7.50
2023-05-14T21:42:10.555Z,7.53
2023-05-14T21:44:36.792Z,8.03
2023-05-14T21:47:03.511Z,8.63
2023-05-14T21:49:29.829Z,7.77
2023-05-14T21:51:56.080Z,7.63
2023-05-14T21:54:22.343Z,7.40
2023-05-14T21:56:48.669Z,7.10
2023-05-14T21:59:14.991Z,7.37
2023-05-14T22:01:56.039Z,8.33
2023-05-14T22:04:27.517Z,7.93
2023-05-14T22:06:53.764Z,7.47
2023-05-14T22:09:20.031Z,7.47
2023-05-14T22:11:46.336Z,7.60
2023-05-14T22:14:12.575Z,7.47
2023-05-14T22:16:38.866Z,7.10
2023-05-14T22:19:06.731Z,7.80
2023-05-14T22:21:33.121Z,8.07
2023-05-14T22:23:59.450Z,7.70
2023-05-14T22:26:25.747Z,7.47
2023-05-14T22:28:52.544Z,7.60
2023-05-14T22:31:18.939Z,8.07
2023-05-14T22:33:45.431Z,8.10
2023-05-14T22:36:11.758Z,8.10
2023-05-14T22:38:38.335Z,8.00
2023-05-14T22:41:04.637Z,8.53
2023-05-14T22:43:30.992Z,8.40
2023-05-14T22:45:57.993Z,7.87
2023-05-14T22:48:24.290Z,8.43
2023-05-14T22:50:51.789Z,8.97
2023-05-14T22:53:18.102Z,8.37
2023-05-14T22:55:44.356Z,8.23
2023-05-14T22:58:10.641Z,8.80
2023-05-14T23:22:42.093Z,8.60
2023-05-14T23:25:08.631Z,9.03
2023-05-14T23:27:35.038Z,8.60
2023-05-14T23:30:01.499Z,8.53
2023-05-14T23:32:27.800Z,9.03
2023-05-14T23:34:54.121Z,8.80
2023-05-14T23:37:20.431Z,8.70
2023-05-14T23:39:46.876Z,9.53
2023-05-14T23:42:13.105Z,8.77
2023-05-14T23:44:39.333Z,8.90
2023-05-14T23:47:05.804Z,8.57
2023-05-14T23:49:32.098Z,8.93
2023-05-14T23:51:58.399Z,9.03
2023-05-14T23:54:24.642Z,9.33
2023-05-14T23:56:52.346Z,9.40
2023-05-14T23:59:18.623Z,8.83
